sensor_id;sensor_type;location;lat;lon;timestamp;pressure;altitude;pressure_sealevel;temperature;humidity
53715;BME280;39608;55.630;37.864;2022-09-17T00:00:43;97795.59;;;12.44;74.85
53715;BME280;39608;55.630;37.864;2022-09-17T00:05:45;97794.28;;;12.38;74.81
53715;BME280;39608;55.630;37.864;2022-09-17T00:10:48;97789.50;;;12.35;74.58
53715;BME280;39608;55.630;37.864;2022-09-17T00:15:50;97778.38;;;12.24;74.53
53715;BME280;39608;55.630;37.864;2022-09-17T00:20:53;97789.50;;;12.19;74.66
53715;BME280;39608;55.630;37.864;2022-09-17T00:25:57;97797.66;;;12.19;74.71
53715;BME280;39608;55.630;37.864;2022-09-17T00:30:59;97791.84;;;12.05;74.73
53715;BME280;39608;55.630;37.864;2022-09-17T00:36:03;97799.69;;;11.94;74.42
53715;BME280;39608;55.630;37.864;2022-09-17T00:41:07;97808.31;;;11.84;74.93
53715;BME280;39608;55.630;37.864;2022-09-17T00:46:24;97815.78;;;11.87;74.82
53715;BME280;39608;55.630;37.864;2022-09-17T00:51:31;97816.03;;;11.69;74.98
53715;BME280;39608;55.630;37.864;2022-09-17T00:56:38;97797.31;;;11.52;75.02
53715;BME280;39608;55.630;37.864;2022-09-17T01:01:41;97813.50;;;11.48;74.72
53715;BME280;39608;55.630;37.864;2022-09-17T01:06:50;97818.22;;;11.51;74.97
53715;BME280;39608;55.630;37.864;2022-09-17T01:12:19;97820.38;;;11.58;75.01
53715;BME280;39608;55.630;37.864;2022-09-17T01:17:27;97816.34;;;11.39;74.69
53715;BME280;39608;55.630;37.864;2022-09-17T01:22:42;97817.94;;;11.40;74.50
53715;BME280;39608;55.630;37.864;2022-09-17T01:33:39;97832.19;;;11.25;74.68
53715;BME280;39608;55.630;37.864;2022-09-17T01:38:52;97832.84;;;11.22;74.73
53715;BME280;39608;55.630;37.864;2022-09-17T01:43:59;97834.44;;;11.10;74.86
53715;BME280;39608;55.630;37.864;2022-09-17T01:49:05;97835.47;;;11.06;74.51
53715;BME280;39608;55.630;37.864;2022-09-17T01:54:15;97847.69;;;11.00;74.75
53715;BME280;39608;55.630;37.864;2022-09-17T01:59:21;97847.69;;;10.87;74.61
53715;BME280;39608;55.630;37.864;2022-09-17T02:04:29;97848.91;;;10.77;74.60
53715;BME280;39608;55.630;37.864;2022-09-17T02:09:36;97858.41;;;10.84;74.50
53715;BME280;39608;55.630;37.864;2022-09-17T02:14:46;97863.94;;;10.75;74.82
53715;BME280;39608;55.630;37.864;2022-09-17T02:19:50;97869.47;;;10.66;74.71
53715;BME280;39608;55.630;37.864;2022-09-17T02:25:00;97866.66;;;10.75;74.44
53715;BME280;39608;55.630;37.864;2022-09-17T02:30:05;97871.03;;;10.55;74.29
53715;BME280;39608;55.630;37.864;2022-09-17T02:35:09;97879.78;;;10.52;74.72
53715;BME280;39608;55.630;37.864;2022-09-17T02:40:16;97873.69;;;10.42;74.69
53715;BME280;39608;55.630;37.864;2022-09-17T02:45:27;97880.66;;;10.43;74.94
53715;BME280;39608;55.630;37.864;2022-09-17T02:50:46;97878.78;;;10.44;74.81
53715;BME280;39608;55.630;37.864;2022-09-17T02:56:01;97879.97;;;10.34;75.16
53715;BME280;39608;55.630;37.864;2022-09-17T03:01:13;97879.38;;;10.28;74.68
53715;BME280;39608;55.630;37.864;2022-09-17T03:06:20;97876.53;;;10.25;74.30
53715;BME280;39608;55.630;37.864;2022-09-17T03:11:22;97894.22;;;10.22;74.41
53715;BME280;39608;55.630;37.864;2022-09-17T03:16:24;97903.34;;;10.18;74.79
53715;BME280;39608;55.630;37.864;2022-09-17T03:21:28;97905.06;;;10.22;74.60
53715;BME280;39608;55.630;37.864;2022-09-17T03:26:30;97903.44;;;10.09;74.55
53715;BME280;39608;55.630;37.864;2022-09-17T03:31:32;97913.59;;;10.12;74.36
53715;BME280;39608;55.630;37.864;2022-09-17T03:36:36;97911.41;;;10.05;74.89
53715;BME280;39608;55.630;37.864;2022-09-17T03:41:38;97909.53;;;10.06;74.59
53715;BME280;39608;55.630;37.864;2022-09-17T03:46:40;97924.28;;;10.08;74.32
53715;BME280;39608;55.630;37.864;2022-09-17T03:51:44;97915.06;;;10.09;74.57
53715;BME280;39608;55.630;37.864;2022-09-17T03:56:46;97925.09;;;10.09;74.57
53715;BME280;39608;55.630;37.864;2022-09-17T04:01:48;97927.94;;;10.13;74.43
53715;BME280;39608;55.630;37.864;2022-09-17T04:06:51;97939.03;;;10.20;74.61
53715;BME280;39608;55.630;37.864;2022-09-17T04:11:54;97942.41;;;10.17;74.40
53715;BME280;39608;55.630;37.864;2022-09-17T04:16:57;97940.94;;;10.19;74.46
53715;BME280;39608;55.630;37.864;2022-09-17T04:22:01;97945.59;;;10.19;74.43
53715;BME280;39608;55.630;37.864;2022-09-17T04:27:03;97948.03;;;10.12;74.28
53715;BME280;39608;55.630;37.864;2022-09-17T04:32:05;97948.34;;;10.10;74.40
53715;BME280;39608;55.630;37.864;2022-09-17T04:37:08;97957.59;;;10.09;74.70
53715;BME280;39608;55.630;37.864;2022-09-17T04:42:10;97948.81;;;10.12;74.49
53715;BME280;39608;55.630;37.864;2022-09-17T04:47:13;97946.25;;;10.16;74.37
53715;BME280;39608;55.630;37.864;2022-09-17T04:52:16;97963.34;;;10.28;74.40
53715;BME280;39608;55.630;37.864;2022-09-17T04:57:21;97961.28;;;10.34;74.31
53715;BME280;39608;55.630;37.864;2022-09-17T05:02:25;97970.00;;;10.40;74.32
53715;BME280;39608;55.630;37.864;2022-09-17T05:07:28;97968.78;;;10.50;74.24
53715;BME280;39608;55.630;37.864;2022-09-17T05:12:30;97958.28;;;10.48;73.97
53715;BME280;39608;55.630;37.864;2022-09-17T05:17:32;97976.22;;;11.20;74.25
53715;BME280;39608;55.630;37.864;2022-09-17T05:22:39;97976.63;;;12.45;70.82
53715;BME280;39608;55.630;37.864;2022-09-17T05:27:42;97988.63;;;13.17;68.53
53715;BME280;39608;55.630;37.864;2022-09-17T05:32:44;97995.03;;;13.25;68.06
53715;BME280;39608;55.630;37.864;2022-09-17T05:37:48;98003.44;;;13.48;67.89
53715;BME280;39608;55.630;37.864;2022-09-17T05:42:50;98016.25;;;13.79;66.63
53715;BME280;39608;55.630;37.864;2022-09-17T05:47:56;98012.44;;;14.00;65.94
53715;BME280;39608;55.630;37.864;2022-09-17T05:53:04;98017.72;;;14.44;64.99
53715;BME280;39608;55.630;37.864;2022-09-17T05:58:10;98020.03;;;14.26;65.67
53715;BME280;39608;55.630;37.864;2022-09-17T06:03:15;98023.03;;;13.54;66.56
53715;BME280;39608;55.630;37.864;2022-09-17T06:08:19;98040.16;;;13.10;67.57
53715;BME280;39608;55.630;37.864;2022-09-17T06:13:22;98041.34;;;12.68;68.20
53715;BME280;39608;55.630;37.864;2022-09-17T06:18:24;98038.13;;;12.50;68.59
53715;BME280;39608;55.630;37.864;2022-09-17T06:23:30;98033.91;;;12.53;68.60
53715;BME280;39608;55.630;37.864;2022-09-17T06:28:35;98031.19;;;12.53;68.43
53715;BME280;39608;55.630;37.864;2022-09-17T06:33:37;98042.50;;;12.55;67.38
53715;BME280;39608;55.630;37.864;2022-09-17T06:38:41;98048.28;;;12.65;67.82
53715;BME280;39608;55.630;37.864;2022-09-17T06:43:43;98044.41;;;12.66;66.92
53715;BME280;39608;55.630;37.864;2022-09-17T06:48:45;98036.81;;;12.72;67.66
53715;BME280;39608;55.630;37.864;2022-09-17T06:53:49;98045.47;;;12.90;67.78
53715;BME280;39608;55.630;37.864;2022-09-17T06:58:51;98048.28;;;12.94;66.75
53715;BME280;39608;55.630;37.864;2022-09-17T07:03:54;98044.91;;;13.13;66.14
53715;BME280;39608;55.630;37.864;2022-09-17T07:08:58;98055.56;;;13.34;65.55
53715;BME280;39608;55.630;37.864;2022-09-17T07:14:00;98051.22;;;13.45;64.17
53715;BME280;39608;55.630;37.864;2022-09-17T07:19:04;98063.91;;;13.85;63.85
53715;BME280;39608;55.630;37.864;2022-09-17T07:24:08;98068.22;;;14.38;63.16
53715;BME280;39608;55.630;37.864;2022-09-17T07:29:10;98069.31;;;14.88;61.05
53715;BME280;39608;55.630;37.864;2022-09-17T07:34:13;98063.31;;;15.22;60.31
53715;BME280;39608;55.630;37.864;2022-09-17T07:39:17;98066.34;;;15.36;60.27
53715;BME280;39608;55.630;37.864;2022-09-17T07:44:19;98059.94;;;15.29;57.50
53715;BME280;39608;55.630;37.864;2022-09-17T07:49:21;98076.06;;;15.14;56.55
53715;BME280;39608;55.630;37.864;2022-09-17T07:54:25;98080.44;;;15.19;56.87
53715;BME280;39608;55.630;37.864;2022-09-17T07:59:27;98072.25;;;16.08;55.10
53715;BME280;39608;55.630;37.864;2022-09-17T08:04:29;98076.88;;;17.18;51.98
53715;BME280;39608;55.630;37.864;2022-09-17T08:09:32;98098.56;;;17.34;51.60
53715;BME280;39608;55.630;37.864;2022-09-17T08:14:34;98080.44;;;17.64;50.00
53715;BME280;39608;55.630;37.864;2022-09-17T08:19:36;98082.31;;;18.49;49.05
53715;BME280;39608;55.630;37.864;2022-09-17T08:24:40;98086.22;;;19.32;47.90
53715;BME280;39608;55.630;37.864;2022-09-17T08:29:42;98082.38;;;19.77;46.26
53715;BME280;39608;55.630;37.864;2022-09-17T08:34:44;98083.97;;;20.21;45.21
53715;BME280;39608;55.630;37.864;2022-09-17T08:39:48;98095.00;;;20.14;44.41
53715;BME280;39608;55.630;37.864;2022-09-17T08:44:50;98093.41;;;19.98;44.50
53715;BME280;39608;55.630;37.864;2022-09-17T08:49:55;98093.41;;;20.34;44.57
53715;BME280;39608;55.630;37.864;2022-09-17T08:55:11;98094.91;;;20.72;44.94
53715;BME280;39608;55.630;37.864;2022-09-17T09:00:25;98101.81;;;21.23;42.29
53715;BME280;39608;55.630;37.864;2022-09-17T09:05:39;98101.78;;;21.34;42.47
53715;BME280;39608;55.630;37.864;2022-09-17T09:10:48;98097.50;;;21.18;41.62
53715;BME280;39608;55.630;37.864;2022-09-17T09:15:54;98082.03;;;21.39;39.40
53715;BME280;39608;55.630;37.864;2022-09-17T09:21:11;98100.50;;;21.46;39.81
53715;BME280;39608;55.630;37.864;2022-09-17T09:26:18;98100.97;;;21.37;38.20
53715;BME280;39608;55.630;37.864;2022-09-17T09:36:46;98105.16;;;20.60;38.00
53715;BME280;39608;55.630;37.864;2022-09-17T09:41:54;98118.53;;;20.65;38.25
53715;BME280;39608;55.630;37.864;2022-09-17T09:47:31;98113.84;;;20.23;40.20
53715;BME280;39608;55.630;37.864;2022-09-17T09:52:48;98123.69;;;20.34;38.73
53715;BME280;39608;55.630;37.864;2022-09-17T09:58:01;98130.34;;;20.77;36.38
53715;BME280;39608;55.630;37.864;2022-09-17T10:03:10;98118.16;;;19.88;36.39
53715;BME280;39608;55.630;37.864;2022-09-17T10:08:15;98104.78;;;18.73;36.75
53715;BME280;39608;55.630;37.864;2022-09-17T10:13:19;98118.66;;;18.32;36.22
53715;BME280;39608;55.630;37.864;2022-09-17T10:18:22;98136.63;;;18.25;36.83
53715;BME280;39608;55.630;37.864;2022-09-17T10:23:26;98133.22;;;18.98;35.81
53715;BME280;39608;55.630;37.864;2022-09-17T10:28:34;98133.53;;;20.14;34.96
53715;BME280;39608;55.630;37.864;2022-09-17T10:33:54;98147.28;;;20.14;35.53
53715;BME280;39608;55.630;37.864;2022-09-17T10:44:24;98153.13;;;20.88;34.25
53715;BME280;39608;55.630;37.864;2022-09-17T10:49:34;98133.94;;;21.62;33.48
53715;BME280;39608;55.630;37.864;2022-09-17T11:00:17;98150.41;;;19.83;34.70
53715;BME280;39608;55.630;37.864;2022-09-17T11:05:37;98148.31;;;19.48;36.98
53715;BME280;39608;55.630;37.864;2022-09-17T11:10:44;98157.19;;;19.05;36.33
53715;BME280;39608;55.630;37.864;2022-09-17T11:16:12;98135.59;;;19.04;37.03
53715;BME280;39608;55.630;37.864;2022-09-17T11:21:25;98147.66;;;19.80;35.24
53715;BME280;39608;55.630;37.864;2022-09-17T11:26:32;98141.41;;;20.19;34.40
53715;BME280;39608;55.630;37.864;2022-09-17T11:31:45;98132.66;;;20.96;34.07
53715;BME280;39608;55.630;37.864;2022-09-17T11:36:54;98158.66;;;20.88;33.84
53715;BME280;39608;55.630;37.864;2022-09-17T11:42:01;98163.41;;;20.01;34.80
53715;BME280;39608;55.630;37.864;2022-09-17T11:47:06;98156.66;;;19.77;37.17
53715;BME280;39608;55.630;37.864;2022-09-17T11:52:12;98154.84;;;19.11;36.13
53715;BME280;39608;55.630;37.864;2022-09-17T11:57:20;98151.19;;;19.91;35.36
53715;BME280;39608;55.630;37.864;2022-09-17T12:02:33;98155.53;;;20.54;34.69
53715;BME280;39608;55.630;37.864;2022-09-17T12:07:42;98177.13;;;20.98;35.44
53715;BME280;39608;55.630;37.864;2022-09-17T12:12:55;98170.91;;;20.33;34.48
53715;BME280;39608;55.630;37.864;2022-09-17T12:18:11;98166.56;;;20.07;34.40
53715;BME280;39608;55.630;37.864;2022-09-17T12:23:24;98162.03;;;19.37;35.04
53715;BME280;39608;55.630;37.864;2022-09-17T12:28:34;98166.19;;;18.98;35.89
53715;BME280;39608;55.630;37.864;2022-09-17T12:33:44;98156.81;;;19.10;35.71
53715;BME280;39608;55.630;37.864;2022-09-17T12:39:09;98175.97;;;19.84;35.87
53715;BME280;39608;55.630;37.864;2022-09-17T12:44:33;98176.66;;;19.63;36.52
53715;BME280;39608;55.630;37.864;2022-09-17T12:49:53;98189.09;;;19.24;36.36
53715;BME280;39608;55.630;37.864;2022-09-17T12:55:20;98199.97;;;20.09;35.48
53715;BME280;39608;55.630;37.864;2022-09-17T13:00:24;98203.16;;;20.54;34.53
53715;BME280;39608;55.630;37.864;2022-09-17T13:05:47;98217.63;;;19.86;35.89
53715;BME280;39608;55.630;37.864;2022-09-17T13:11:13;98213.31;;;19.04;37.52
53715;BME280;39608;55.630;37.864;2022-09-17T13:16:31;98193.81;;;19.27;37.09
53715;BME280;39608;55.630;37.864;2022-09-17T13:21:42;98202.75;;;20.77;34.86
53715;BME280;39608;55.630;37.864;2022-09-17T13:26:49;98202.16;;;21.62;33.20
53715;BME280;39608;55.630;37.864;2022-09-17T13:31:52;98191.06;;;21.69;32.47
53715;BME280;39608;55.630;37.864;2022-09-17T13:36:57;98187.03;;;20.27;34.53
53715;BME280;39608;55.630;37.864;2022-09-17T13:42:02;98190.81;;;19.65;35.62
53715;BME280;39608;55.630;37.864;2022-09-17T13:47:11;98189.00;;;19.06;36.78
53715;BME280;39608;55.630;37.864;2022-09-17T13:52:19;98191.66;;;19.80;37.16
53715;BME280;39608;55.630;37.864;2022-09-17T13:57:31;98187.41;;;20.58;35.01
53715;BME280;39608;55.630;37.864;2022-09-17T14:02:35;98184.47;;;21.45;34.24
53715;BME280;39608;55.630;37.864;2022-09-17T14:07:45;98197.56;;;21.08;35.44
53715;BME280;39608;55.630;37.864;2022-09-17T14:12:54;98190.44;;;21.25;35.58
53715;BME280;39608;55.630;37.864;2022-09-17T14:17:58;98172.84;;;20.36;35.85
53715;BME280;39608;55.630;37.864;2022-09-17T14:23:04;98174.97;;;19.29;37.62
53715;BME280;39608;55.630;37.864;2022-09-17T14:28:12;98196.09;;;18.59;38.84
53715;BME280;39608;55.630;37.864;2022-09-17T14:33:17;98196.78;;;18.00;39.18
53715;BME280;39608;55.630;37.864;2022-09-17T14:38:24;98190.31;;;17.82;39.76
53715;BME280;39608;55.630;37.864;2022-09-17T14:43:37;98195.09;;;17.88;39.94
53715;BME280;39608;55.630;37.864;2022-09-17T14:48:42;98200.38;;;17.70;40.43
53715;BME280;39608;55.630;37.864;2022-09-17T14:53:46;98201.41;;;17.58;40.73
53715;BME280;39608;55.630;37.864;2022-09-17T14:58:51;98202.31;;;17.36;41.20
53715;BME280;39608;55.630;37.864;2022-09-17T15:04:09;98198.31;;;17.30;41.42
53715;BME280;39608;55.630;37.864;2022-09-17T15:09:15;98201.13;;;17.03;42.29
53715;BME280;39608;55.630;37.864;2022-09-17T15:14:18;98204.66;;;16.80;42.85
53715;BME280;39608;55.630;37.864;2022-09-17T15:19:25;98212.75;;;16.73;43.16
53715;BME280;39608;55.630;37.864;2022-09-17T15:24:38;98219.25;;;16.61;43.58
53715;BME280;39608;55.630;37.864;2022-09-17T15:29:45;98218.31;;;16.53;44.26
53715;BME280;39608;55.630;37.864;2022-09-17T15:35:17;98237.47;;;16.53;44.12
53715;BME280;39608;55.630;37.864;2022-09-17T15:40:31;98220.44;;;16.37;44.70
53715;BME280;39608;55.630;37.864;2022-09-17T15:45:34;98226.63;;;16.11;45.84
53715;BME280;39608;55.630;37.864;2022-09-17T15:50:50;98246.75;;;16.22;45.89
53715;BME280;39608;55.630;37.864;2022-09-17T15:56:03;98267.75;;;16.18;46.63
53715;BME280;39608;55.630;37.864;2022-09-17T16:01:49;98283.06;;;15.99;47.67
53715;BME280;39608;55.630;37.864;2022-09-17T16:07:22;98282.38;;;15.12;52.89
53715;BME280;39608;55.630;37.864;2022-09-17T16:12:28;98273.50;;;14.51;55.14
53715;BME280;39608;55.630;37.864;2022-09-17T16:17:41;98264.59;;;14.38;54.76
53715;BME280;39608;55.630;37.864;2022-09-17T16:22:44;98271.09;;;14.17;57.30
53715;BME280;39608;55.630;37.864;2022-09-17T16:27:51;98298.63;;;14.28;57.13
53715;BME280;39608;55.630;37.864;2022-09-17T16:32:55;98297.66;;;14.20;57.95
53715;BME280;39608;55.630;37.864;2022-09-17T16:37:57;98287.88;;;14.19;57.97
53715;BME280;39608;55.630;37.864;2022-09-17T16:43:01;98307.84;;;14.24;57.60
53715;BME280;39608;55.630;37.864;2022-09-17T16:48:04;98322.53;;;14.19;58.19
53715;BME280;39608;55.630;37.864;2022-09-17T16:53:06;98324.56;;;14.22;57.90
53715;BME280;39608;55.630;37.864;2022-09-17T16:58:10;98322.72;;;14.26;57.16
53715;BME280;39608;55.630;37.864;2022-09-17T17:03:13;98313.31;;;14.24;57.10
53715;BME280;39608;55.630;37.864;2022-09-17T17:08:16;98322.63;;;14.23;56.92
53715;BME280;39608;55.630;37.864;2022-09-17T17:13:20;98315.59;;;14.22;56.56
53715;BME280;39608;55.630;37.864;2022-09-17T17:18:23;98317.69;;;14.12;56.97
53715;BME280;39608;55.630;37.864;2022-09-17T17:23:25;98316.69;;;14.04;57.36
53715;BME280;39608;55.630;37.864;2022-09-17T17:28:32;98315.47;;;14.02;57.48
53715;BME280;39608;55.630;37.864;2022-09-17T17:33:34;98308.81;;;13.87;57.56
53715;BME280;39608;55.630;37.864;2022-09-17T17:38:37;98333.94;;;13.80;57.46
53715;BME280;39608;55.630;37.864;2022-09-17T17:43:41;98344.03;;;13.80;57.49
53715;BME280;39608;55.630;37.864;2022-09-17T17:48:44;98341.22;;;13.64;57.67
53715;BME280;39608;55.630;37.864;2022-09-17T17:53:47;98331.94;;;13.52;58.14
53715;BME280;39608;55.630;37.864;2022-09-17T17:58:54;98330.81;;;13.54;58.06
53715;BME280;39608;55.630;37.864;2022-09-17T18:03:59;98319.69;;;13.34;58.16
53715;BME280;39608;55.630;37.864;2022-09-17T18:09:02;98338.53;;;13.27;58.84
53715;BME280;39608;55.630;37.864;2022-09-17T18:14:10;98333.19;;;13.30;58.66
53715;BME280;39608;55.630;37.864;2022-09-17T18:19:13;98338.53;;;13.14;58.97
53715;BME280;39608;55.630;37.864;2022-09-17T18:24:17;98345.72;;;13.07;59.32
53715;BME280;39608;55.630;37.864;2022-09-17T18:29:21;98338.66;;;13.06;59.43
53715;BME280;39608;55.630;37.864;2022-09-17T18:34:24;98343.41;;;12.96;59.40
53715;BME280;39608;55.630;37.864;2022-09-17T18:39:28;98346.03;;;12.93;59.64
53715;BME280;39608;55.630;37.864;2022-09-17T18:44:31;98344.44;;;12.92;59.79
53715;BME280;39608;55.630;37.864;2022-09-17T18:49:34;98344.09;;;12.81;59.94
53715;BME280;39608;55.630;37.864;2022-09-17T18:54:37;98348.50;;;12.73;60.05
53715;BME280;39608;55.630;37.864;2022-09-17T18:59:42;98344.88;;;12.69;60.43
53715;BME280;39608;55.630;37.864;2022-09-17T19:04:45;98351.88;;;12.58;60.92
53715;BME280;39608;55.630;37.864;2022-09-17T19:09:47;98365.69;;;12.53;60.86
53715;BME280;39608;55.630;37.864;2022-09-17T19:14:52;98352.09;;;12.53;61.00
53715;BME280;39608;55.630;37.864;2022-09-17T19:19:55;98365.31;;;12.42;61.15
53715;BME280;39608;55.630;37.864;2022-09-17T19:24:58;98361.41;;;12.30;61.46
53715;BME280;39608;55.630;37.864;2022-09-17T19:30:02;98366.50;;;12.32;61.50
53715;BME280;39608;55.630;37.864;2022-09-17T19:35:05;98359.91;;;12.21;61.78
53715;BME280;39608;55.630;37.864;2022-09-17T19:40:09;98370.34;;;12.19;61.93
53715;BME280;39608;55.630;37.864;2022-09-17T19:45:14;98375.53;;;12.24;62.21
53715;BME280;39608;55.630;37.864;2022-09-17T19:50:18;98379.59;;;12.18;62.40
53715;BME280;39608;55.630;37.864;2022-09-17T19:55:21;98381.41;;;12.13;62.59
53715;BME280;39608;55.630;37.864;2022-09-17T20:00:25;98383.34;;;12.13;62.55
53715;BME280;39608;55.630;37.864;2022-09-17T20:05:27;98381.00;;;12.03;63.05
53715;BME280;39608;55.630;37.864;2022-09-17T20:10:30;98390.50;;;11.96;63.25
53715;BME280;39608;55.630;37.864;2022-09-17T20:15:34;98401.03;;;11.98;63.34
53715;BME280;39608;55.630;37.864;2022-09-17T20:20:37;98401.84;;;11.90;63.73
53715;BME280;39608;55.630;37.864;2022-09-17T20:25:39;98423.91;;;11.88;63.88
53715;BME280;39608;55.630;37.864;2022-09-17T20:30:42;98426.31;;;11.90;63.78
53715;BME280;39608;55.630;37.864;2022-09-17T20:35:44;98419.78;;;11.82;64.18
53715;BME280;39608;55.630;37.864;2022-09-17T20:40:46;98412.19;;;11.75;64.55
53715;BME280;39608;55.630;37.864;2022-09-17T20:45:54;98417.41;;;11.80;64.79
53715;BME280;39608;55.630;37.864;2022-09-17T20:50:57;98424.84;;;11.71;64.77
53715;BME280;39608;55.630;37.864;2022-09-17T20:56:02;98428.06;;;11.64;65.02
53715;BME280;39608;55.630;37.864;2022-09-17T21:01:09;98432.84;;;11.68;64.76
53715;BME280;39608;55.630;37.864;2022-09-17T21:06:17;98435.44;;;11.64;65.26
53715;BME280;39608;55.630;37.864;2022-09-17T21:11:20;98429.41;;;11.50;65.66
53715;BME280;39608;55.630;37.864;2022-09-17T21:16:24;98437.09;;;11.47;65.97
53715;BME280;39608;55.630;37.864;2022-09-17T21:21:26;98441.59;;;11.43;65.92
53715;BME280;39608;55.630;37.864;2022-09-17T21:26:29;98454.22;;;11.39;66.20
53715;BME280;39608;55.630;37.864;2022-09-17T21:31:34;98456.16;;;11.39;66.01
53715;BME280;39608;55.630;37.864;2022-09-17T21:36:39;98459.38;;;11.32;66.48
53715;BME280;39608;55.630;37.864;2022-09-17T21:41:41;98473.72;;;11.33;66.58
53715;BME280;39608;55.630;37.864;2022-09-17T21:46:45;98483.16;;;11.35;66.71
53715;BME280;39608;55.630;37.864;2022-09-17T21:51:49;98489.41;;;11.27;66.74
53715;BME280;39608;55.630;37.864;2022-09-17T21:56:51;98487.78;;;11.26;66.98
53715;BME280;39608;55.630;37.864;2022-09-17T22:01:55;98485.41;;;11.24;67.08
53715;BME280;39608;55.630;37.864;2022-09-17T22:06:57;98481.75;;;11.20;67.13
53715;BME280;39608;55.630;37.864;2022-09-17T22:12:00;98477.75;;;11.18;67.43
53715;BME280;39608;55.630;37.864;2022-09-17T22:17:05;98477.91;;;11.21;67.70
53715;BME280;39608;55.630;37.864;2022-09-17T22:22:07;98473.78;;;11.24;67.18
53715;BME280;39608;55.630;37.864;2022-09-17T22:27:10;98462.25;;;11.27;67.48
53715;BME280;39608;55.630;37.864;2022-09-17T22:32:13;98465.25;;;11.34;67.40
53715;BME280;39608;55.630;37.864;2022-09-17T22:37:15;98451.06;;;11.28;67.63
53715;BME280;39608;55.630;37.864;2022-09-17T22:42:17;98449.63;;;11.31;67.81
53715;BME280;39608;55.630;37.864;2022-09-17T22:47:20;98449.78;;;11.35;67.93
53715;BME280;39608;55.630;37.864;2022-09-17T22:52:22;98447.84;;;11.35;67.88
53715;BME280;39608;55.630;37.864;2022-09-17T22:57:24;98444.81;;;11.37;68.05
53715;BME280;39608;55.630;37.864;2022-09-17T23:02:28;98452.16;;;11.36;67.78
53715;BME280;39608;55.630;37.864;2022-09-17T23:07:30;98462.25;;;11.27;68.08
53715;BME280;39608;55.630;37.864;2022-09-17T23:12:32;98456.72;;;11.15;68.26
53715;BME280;39608;55.630;37.864;2022-09-17T23:17:36;98456.41;;;11.07;68.52
53715;BME280;39608;55.630;37.864;2022-09-17T23:22:38;98449.09;;;10.99;68.53
53715;BME280;39608;55.630;37.864;2022-09-17T23:27:40;98447.66;;;11.02;68.26
53715;BME280;39608;55.630;37.864;2022-09-17T23:32:43;98447.97;;;11.00;68.76
53715;BME280;39608;55.630;37.864;2022-09-17T23:37:45;98452.09;;;11.06;68.04
53715;BME280;39608;55.630;37.864;2022-09-17T23:42:48;98448.16;;;10.95;68.60
53715;BME280;39608;55.630;37.864;2022-09-17T23:47:51;98441.13;;;10.94;68.91
53715;BME280;39608;55.630;37.864;2022-09-17T23:52:53;98447.19;;;11.00;68.72
53715;BME280;39608;55.630;37.864;2022-09-17T23:57:55;98461.25;;;10.93;68.72
